createdAt,value
2019-05-22T00:02:17.032Z,82.78
2019-05-22T00:04:50.778Z,81.04
2019-05-22T00:07:19.680Z,82.49
2019-05-22T00:09:48.575Z,82.82
2019-05-22T00:12:18.329Z,82.60
2019-05-22T00:14:47.747Z,82.76
2019-05-22T00:17:16.636Z,82.39
2019-05-22T00:19:45.813Z,80.02
2019-05-22T00:22:23.087Z,81.36
2019-05-22T00:24:53.231Z,81.76
2019-05-22T00:27:22.579Z,81.83
2019-05-22T00:29:52.166Z,79.63
2019-05-22T00:32:21.335Z,81.22
2019-05-22T00:34:50.253Z,81.81
2019-05-22T00:37:19.257Z,80.40
2019-05-22T00:39:48.732Z,79.47
2019-05-22T00:42:18.512Z,81.24
2019-05-22T00:44:47.932Z,79.12
2019-05-22T00:47:17.152Z,79.49
2019-05-22T00:49:46.826Z,81.36
2019-05-22T00:52:33.682Z,81.46
2019-05-22T00:55:15.660Z,81.53
2019-05-22T00:58:03.677Z,81.79
2019-05-22T01:00:37.891Z,81.47
2019-05-22T01:03:07.663Z,81.79
2019-05-22T01:05:37.617Z,81.93
2019-05-22T01:08:07.195Z,82.05
2019-05-22T01:10:36.174Z,81.83
2019-05-22T01:13:05.094Z,81.37
2019-05-22T01:15:33.967Z,81.65
2019-05-22T01:18:02.976Z,81.48
2019-05-22T01:20:31.911Z,81.12
2019-05-22T01:23:00.850Z,80.85
2019-05-22T01:25:29.736Z,79.18
2019-05-22T01:27:58.773Z,80.20
2019-05-22T01:30:34.614Z,80.28
2019-05-22T01:33:05.692Z,79.94
2019-05-22T01:35:36.600Z,80.01
2019-05-22T01:38:06.970Z,79.93
2019-05-22T01:40:42.800Z,80.11
2019-05-22T01:43:12.816Z,80.07
2019-05-22T01:45:52.533Z,79.49
2019-05-22T01:48:22.932Z,79.29
2019-05-22T01:50:54.392Z,79.08
2019-05-22T01:53:25.583Z,78.72
2019-05-22T01:55:57.852Z,78.21
2019-05-22T01:58:27.495Z,77.99
2019-05-22T02:00:56.485Z,78.02
2019-05-22T02:03:25.946Z,78.06
2019-05-22T02:05:54.925Z,77.65
2019-05-22T02:08:24.546Z,77.50
2019-05-22T02:10:53.451Z,77.21
2019-05-22T02:13:27.780Z,77.01
2019-05-22T02:15:56.683Z,77.28
2019-05-22T02:18:25.579Z,76.39
2019-05-22T02:20:54.496Z,75.92
2019-05-22T02:23:23.414Z,75.07
2019-05-22T02:25:52.279Z,74.84
2019-05-22T02:28:21.251Z,74.03
2019-05-22T02:30:50.134Z,73.98
2019-05-22T02:33:19.511Z,74.36
2019-05-22T02:35:48.399Z,74.31
2019-05-22T02:38:17.339Z,74.14
2019-05-22T02:40:46.242Z,74.06
2019-05-22T02:43:15.136Z,74.08
2019-05-22T02:45:44.439Z,74.61
2019-05-22T02:48:13.315Z,74.78
2019-05-22T02:50:42.244Z,74.84
2019-05-22T02:53:11.297Z,75.49
2019-05-22T02:55:40.325Z,75.34
2019-05-22T02:58:09.559Z,73.81
2019-05-22T03:00:52.386Z,71.74
2019-05-22T03:03:21.310Z,73.09
2019-05-22T03:05:50.217Z,73.10
2019-05-22T03:08:19.137Z,73.16
2019-05-22T03:10:48.066Z,73.65
2019-05-22T03:13:16.965Z,72.64
2019-05-22T03:15:45.883Z,74.09
2019-05-22T03:18:14.783Z,74.12
2019-05-22T03:20:43.707Z,74.10
2019-05-22T03:23:33.088Z,74.56
2019-05-22T03:26:02.293Z,74.47
2019-05-22T03:28:31.162Z,74.62
2019-05-22T03:31:00.112Z,75.34
2019-05-22T03:33:29.118Z,75.15
2019-05-22T03:36:06.502Z,75.32
2019-05-22T03:38:35.407Z,75.53
2019-05-22T03:41:04.359Z,75.58
2019-05-22T03:43:33.256Z,75.58
2019-05-22T03:46:04.192Z,75.39
2019-05-22T03:48:34.586Z,75.58
2019-05-22T03:51:09.974Z,75.66
2019-05-22T03:53:38.890Z,75.87
2019-05-22T03:56:07.971Z,74.60
2019-05-22T03:58:36.889Z,75.52
2019-05-22T04:01:05.861Z,75.65
2019-05-22T04:03:35.801Z,74.14
2019-05-22T04:06:05.034Z,74.88
2019-05-22T04:08:33.944Z,74.57
2019-05-22T04:11:03.243Z,73.20
2019-05-22T04:13:32.709Z,74.46
2019-05-22T04:16:01.757Z,74.58
2019-05-22T04:18:30.668Z,74.54
2019-05-22T04:20:59.572Z,74.51
2019-05-22T04:23:28.499Z,73.96
2019-05-22T04:25:57.445Z,73.97
2019-05-22T04:28:26.692Z,74.01
2019-05-22T04:30:59.712Z,74.00
2019-05-22T04:33:24.514Z,73.56
2019-05-22T04:35:53.454Z,73.38
2019-05-22T04:38:22.451Z,73.52
2019-05-22T04:40:55.004Z,73.73
2019-05-22T04:43:27.242Z,73.66
2019-05-22T04:45:56.177Z,72.91
2019-05-22T04:48:25.850Z,73.18
2019-05-22T04:50:54.753Z,73.11
2019-05-22T04:53:23.629Z,73.52
2019-05-22T04:55:53.035Z,73.10
2019-05-22T04:58:28.678Z,73.53
2019-05-22T05:00:57.583Z,73.78
2019-05-22T05:03:26.526Z,74.02
2019-05-22T05:05:55.472Z,73.89
2019-05-22T05:08:24.369Z,73.92
2019-05-22T05:10:53.322Z,73.75
2019-05-22T05:13:22.303Z,72.24
2019-05-22T05:15:51.246Z,72.78
2019-05-22T05:18:20.141Z,72.87
2019-05-22T05:20:49.047Z,72.83
2019-05-22T05:23:17.964Z,72.61
2019-05-22T05:25:46.846Z,72.77
2019-05-22T05:28:15.785Z,72.25
2019-05-22T05:30:44.727Z,72.18
2019-05-22T05:33:13.622Z,72.00
2019-05-22T05:35:42.551Z,71.67
2019-05-22T05:38:11.495Z,71.99
2019-05-22T05:40:43.520Z,71.84
2019-05-22T05:43:16.634Z,71.77
2019-05-22T05:45:45.835Z,71.72
2019-05-22T05:48:17.048Z,71.74
2019-05-22T05:51:26.408Z,71.97
2019-05-22T05:54:19.760Z,71.77
2019-05-22T05:56:49.211Z,71.83
2019-05-22T05:59:18.837Z,72.12
2019-05-22T06:01:49.596Z,71.65
2019-05-22T06:04:34.071Z,71.63
2019-05-22T06:07:21.479Z,71.27
2019-05-22T06:10:29.240Z,70.99
2019-05-22T06:12:58.141Z,70.40
2019-05-22T06:15:46.655Z,68.84
2019-05-22T06:18:31.344Z,68.25
2019-05-22T06:21:03.800Z,67.38
2019-05-22T06:24:06.808Z,67.31
2019-05-22T06:27:05.529Z,66.31
2019-05-22T06:30:07.945Z,63.64
2019-05-22T06:33:27.146Z,64.96
2019-05-22T06:35:56.054Z,63.56
2019-05-22T06:38:55.012Z,63.35
2019-05-22T06:41:29.862Z,63.01
2019-05-22T06:44:25.589Z,61.58
2019-05-22T06:46:54.505Z,60.45
2019-05-22T06:49:45.578Z,59.03
2019-05-22T06:52:14.725Z,58.26
2019-05-22T06:54:43.884Z,54.88
2019-05-22T06:57:30.397Z,54.52
2019-05-22T07:00:13.460Z,53.88
2019-05-22T07:02:30.600Z,53.35
2019-05-22T07:04:59.557Z,54.96
2019-05-22T07:07:28.502Z,53.82
2019-05-22T07:09:57.748Z,54.39
2019-05-22T07:12:26.641Z,53.56
2019-05-22T07:15:26.583Z,54.29
2019-05-22T07:17:55.782Z,53.09
2019-05-22T07:20:28.007Z,49.51
2019-05-22T07:22:57.120Z,48.81
2019-05-22T07:25:26.035Z,46.90
2019-05-22T07:27:54.887Z,41.97
2019-05-22T07:30:24.342Z,37.51
2019-05-22T07:32:53.211Z,37.17
2019-05-22T07:35:22.142Z,35.22
2019-05-22T07:37:51.101Z,32.41
2019-05-22T07:40:19.963Z,30.65
2019-05-22T07:42:49.294Z,29.23
2019-05-22T07:45:18.184Z,31.06
2019-05-22T07:47:47.612Z,31.41
2019-05-22T07:50:16.507Z,33.96
2019-05-22T07:52:45.392Z,36.26
2019-05-22T07:55:14.342Z,38.71
2019-05-22T07:57:43.215Z,38.64
2019-05-22T08:00:12.144Z,37.64
2019-05-22T08:02:43.329Z,35.26
2019-05-22T08:05:12.219Z,32.86
2019-05-22T08:07:41.145Z,33.55
2019-05-22T08:10:10.801Z,35.75
2019-05-22T08:12:39.712Z,32.21
2019-05-22T08:15:08.720Z,30.33
2019-05-22T08:17:37.622Z,32.79
2019-05-22T08:20:06.624Z,32.73
2019-05-22T08:22:35.850Z,30.50
2019-05-22T08:25:04.859Z,29.46
2019-05-22T08:27:33.812Z,26.86
2019-05-22T08:30:02.730Z,29.51
2019-05-22T08:32:31.638Z,32.80
2019-05-22T08:35:00.527Z,31.82
2019-05-22T08:37:29.448Z,30.16
2019-05-22T08:39:58.353Z,28.38
2019-05-22T08:42:27.249Z,28.38
2019-05-22T08:44:56.140Z,29.38
2019-05-22T08:47:25.053Z,26.81
2019-05-22T08:49:53.960Z,25.25
2019-05-22T08:52:24.218Z,25.21
2019-05-22T08:54:51.778Z,22.87
2019-05-22T08:57:20.938Z,23.64
2019-05-22T08:59:49.826Z,24.54
2019-05-22T09:02:18.731Z,22.65
2019-05-22T09:04:47.632Z,23.07
2019-05-22T09:07:16.534Z,24.55
2019-05-22T09:09:45.444Z,25.35
2019-05-22T09:12:14.346Z,24.89
2019-05-22T09:14:43.300Z,23.94
2019-05-22T09:17:12.205Z,26.21
2019-05-22T09:19:41.564Z,26.14
2019-05-22T09:22:10.537Z,25.85
2019-05-22T09:24:39.460Z,24.02
2019-05-22T09:27:08.371Z,23.11
2019-05-22T09:29:37.369Z,22.30
2019-05-22T09:32:08.256Z,20.53
2019-05-22T09:34:36.989Z,22.30
2019-05-22T09:37:05.912Z,23.59
2019-05-22T09:39:34.761Z,22.77
2019-05-22T09:42:04.997Z,24.43
2019-05-22T09:44:33.799Z,25.84
2019-05-22T09:47:02.865Z,24.83
2019-05-22T09:49:31.742Z,24.20
2019-05-22T09:52:00.656Z,23.90
2019-05-22T09:54:29.550Z,22.28
2019-05-22T09:56:58.424Z,22.18
2019-05-22T09:59:27.334Z,19.29
2019-05-22T10:01:56.231Z,20.92
2019-05-22T10:04:25.245Z,20.27
2019-05-22T10:06:54.106Z,20.65
2019-05-22T10:09:23.000Z,21.45
2019-05-22T10:11:51.893Z,20.96
2019-05-22T10:14:20.816Z,20.92
2019-05-22T10:16:49.720Z,20.46
2019-05-22T10:19:18.668Z,21.57
2019-05-22T10:21:48.271Z,21.17
2019-05-22T10:24:17.190Z,22.60
2019-05-22T10:26:46.167Z,22.99
2019-05-22T10:29:15.052Z,22.75
2019-05-22T10:31:44.001Z,21.42
2019-05-22T10:34:12.893Z,21.30
2019-05-22T10:36:43.228Z,20.88
2019-05-22T10:39:10.729Z,21.24
2019-05-22T10:41:39.633Z,20.62
2019-05-22T10:44:08.722Z,20.62
2019-05-22T10:46:37.578Z,21.86
2019-05-22T10:49:06.590Z,23.47
2019-05-22T10:51:35.450Z,24.56
2019-05-22T10:54:04.479Z,25.72
2019-05-22T10:56:33.370Z,26.59
2019-05-22T10:59:02.276Z,27.73
2019-05-22T11:01:31.319Z,27.52
2019-05-22T11:04:00.232Z,28.46
2019-05-22T11:06:29.115Z,28.64
2019-05-22T11:08:58.020Z,29.11
2019-05-22T11:11:26.948Z,29.85
2019-05-22T11:14:01.315Z,29.48
2019-05-22T11:16:24.710Z,29.82
2019-05-22T11:18:53.653Z,29.53
2019-05-22T11:21:22.974Z,31.58
2019-05-22T11:23:53.228Z,32.64
2019-05-22T11:26:20.776Z,34.06
2019-05-22T11:28:49.659Z,32.70
2019-05-22T11:31:18.906Z,32.07
2019-05-22T11:33:47.774Z,30.77
2019-05-22T11:36:17.087Z,30.69
2019-05-22T11:38:46.083Z,29.80
2019-05-22T11:41:14.978Z,28.65
2019-05-22T11:43:43.862Z,30.20
2019-05-22T11:46:12.812Z,29.88
2019-05-22T11:48:41.703Z,32.03
2019-05-22T11:51:11.125Z,32.15
2019-05-22T11:53:40.016Z,31.36
2019-05-22T11:56:08.928Z,33.66
2019-05-22T11:58:37.843Z,34.42
2019-05-22T12:01:06.884Z,34.37
2019-05-22T12:03:35.782Z,34.50
2019-05-22T12:06:04.843Z,34.91
2019-05-22T12:08:33.727Z,36.24
2019-05-22T12:11:02.745Z,35.87
2019-05-22T12:13:31.729Z,36.87
2019-05-22T12:16:00.796Z,37.13
2019-05-22T12:18:29.707Z,36.43
2019-05-22T12:20:58.601Z,37.50
2019-05-22T12:23:27.514Z,37.07
2019-05-22T12:25:56.396Z,37.08
2019-05-22T12:28:25.323Z,36.80
2019-05-22T12:30:54.241Z,36.32
2019-05-22T12:33:23.130Z,35.30
2019-05-22T12:35:52.038Z,36.68
2019-05-22T12:38:20.913Z,34.90
2019-05-22T12:40:49.823Z,33.90
2019-05-22T12:43:18.714Z,33.42
2019-05-22T12:45:47.610Z,33.35
2019-05-22T12:48:16.495Z,34.16
2019-05-22T12:50:45.929Z,33.32
2019-05-22T12:53:18.429Z,34.49
2019-05-22T12:55:50.215Z,35.04
2019-05-22T12:58:19.762Z,34.79
2019-05-22T13:00:49.143Z,33.70
2019-05-22T13:03:21.401Z,34.93
2019-05-22T13:05:58.916Z,34.71
2019-05-22T13:08:27.687Z,34.63
2019-05-22T13:10:59.219Z,32.91
2019-05-22T13:13:31.423Z,33.88
2019-05-22T13:16:00.934Z,32.99
2019-05-22T13:18:35.510Z,32.70
2019-05-22T13:21:04.772Z,32.43
2019-05-22T13:23:43.148Z,32.52
2019-05-22T13:26:17.480Z,33.51
2019-05-22T13:28:52.820Z,34.21
2019-05-22T13:31:24.995Z,35.27
2019-05-22T13:33:54.182Z,34.42
2019-05-22T13:36:30.785Z,34.33
2019-05-22T13:39:02.226Z,34.30
2019-05-22T13:41:31.234Z,34.31
2019-05-22T13:44:00.957Z,34.68
2019-05-22T13:46:30.204Z,34.66
2019-05-22T13:48:59.471Z,34.23
2019-05-22T13:51:28.625Z,34.51
2019-05-22T13:54:00.890Z,35.29
2019-05-22T13:56:34.616Z,34.91
2019-05-22T13:59:01.792Z,35.76
2019-05-22T14:01:33.528Z,36.17
2019-05-22T14:04:05.533Z,36.74
2019-05-22T14:06:34.449Z,33.54
2019-05-22T14:09:03.492Z,34.06
2019-05-22T14:11:32.371Z,34.55
2019-05-22T14:14:01.305Z,35.01
2019-05-22T14:16:30.176Z,35.53
2019-05-22T14:18:59.099Z,35.97
2019-05-22T14:21:27.977Z,35.56
2019-05-22T14:23:56.840Z,36.59
2019-05-22T14:26:25.741Z,36.21
2019-05-22T14:28:54.690Z,36.24
2019-05-22T14:31:23.511Z,36.78
2019-05-22T14:33:52.456Z,36.37
2019-05-22T14:36:21.360Z,37.19
2019-05-22T14:38:50.307Z,36.30
2019-05-22T14:41:19.192Z,36.69
2019-05-22T14:43:48.084Z,37.14
2019-05-22T14:46:16.971Z,37.44
2019-05-22T14:48:45.915Z,37.75
2019-05-22T14:51:15.134Z,37.13
2019-05-22T14:53:44.081Z,37.84
2019-05-22T14:56:12.976Z,35.52
2019-05-22T14:58:42.289Z,35.06
2019-05-22T15:01:11.310Z,35.04
2019-05-22T15:03:40.227Z,35.27
2019-05-22T15:06:09.191Z,34.86
2019-05-22T15:08:38.140Z,34.06
2019-05-22T15:11:07.110Z,34.82
2019-05-22T15:13:36.008Z,34.46
2019-05-22T15:16:05.017Z,34.02
2019-05-22T15:18:33.901Z,33.64
2019-05-22T15:21:06.091Z,34.16
2019-05-22T15:23:34.974Z,35.12
2019-05-22T15:26:03.899Z,35.72
2019-05-22T15:28:32.781Z,37.00
2019-05-22T15:31:02.433Z,36.80
2019-05-22T15:33:31.710Z,36.91
2019-05-22T15:36:00.615Z,36.70
2019-05-22T15:38:29.513Z,37.06
2019-05-22T15:40:58.445Z,37.34
2019-05-22T15:43:27.753Z,36.66
2019-05-22T15:45:56.654Z,36.74
2019-05-22T15:48:29.194Z,37.27
2019-05-22T15:50:59.582Z,37.10
2019-05-22T15:53:28.486Z,37.21
2019-05-22T15:55:57.381Z,38.15
2019-05-22T15:58:26.420Z,38.28
2019-05-22T16:00:55.766Z,38.29
2019-05-22T16:03:26.367Z,38.67
2019-05-22T16:05:55.284Z,38.17
2019-05-22T16:08:24.162Z,38.30
2019-05-22T16:10:53.038Z,38.15
2019-05-22T16:13:23.349Z,38.44
2019-05-22T16:15:52.468Z,36.07
2019-05-22T16:18:22.112Z,34.96
2019-05-22T16:20:50.997Z,33.63
2019-05-22T16:23:21.688Z,33.60
2019-05-22T16:25:49.419Z,34.13
2019-05-22T16:28:18.399Z,34.06
2019-05-22T16:30:47.288Z,33.94
2019-05-22T16:33:16.210Z,33.52
2019-05-22T16:35:45.100Z,33.85
2019-05-22T16:38:14.315Z,34.23
2019-05-22T16:40:43.506Z,33.71
2019-05-22T16:43:12.460Z,33.79
2019-05-22T16:45:41.362Z,32.74
2019-05-22T16:48:10.251Z,33.10
2019-05-22T16:50:39.608Z,33.77
2019-05-22T16:53:08.859Z,33.59
2019-05-22T16:55:38.341Z,32.89
2019-05-22T16:58:07.376Z,32.85
2019-05-22T17:00:36.237Z,33.03
2019-05-22T17:03:05.212Z,32.22
2019-05-22T17:05:34.140Z,33.15
2019-05-22T17:08:03.150Z,33.30
2019-05-22T17:10:31.987Z,33.55
2019-05-22T17:13:00.910Z,33.51
2019-05-22T17:15:29.812Z,33.62
2019-05-22T17:17:58.688Z,33.91
2019-05-22T17:20:28.202Z,33.29
2019-05-22T17:22:57.172Z,33.43
2019-05-22T17:25:26.126Z,34.87
2019-05-22T17:27:55.049Z,37.37
2019-05-22T17:30:23.997Z,40.56
2019-05-22T17:32:52.922Z,42.14
2019-05-22T17:35:22.167Z,44.85
2019-05-22T17:37:51.103Z,44.86
2019-05-22T17:40:20.028Z,45.37
2019-05-22T17:42:48.943Z,45.60
2019-05-22T17:45:17.825Z,46.31
2019-05-22T17:47:46.828Z,46.44
2019-05-22T17:50:26.346Z,46.01
2019-05-22T17:52:44.684Z,45.66
2019-05-22T17:55:13.553Z,46.30
2019-05-22T17:57:42.482Z,46.72
2019-05-22T18:00:16.713Z,46.67
2019-05-22T18:02:45.623Z,46.33
2019-05-22T18:05:14.519Z,46.04
2019-05-22T18:07:43.412Z,46.22
2019-05-22T18:10:12.303Z,46.81
2019-05-22T18:12:41.203Z,46.83
2019-05-22T18:15:10.500Z,47.04
2019-05-22T18:17:39.929Z,46.73
2019-05-22T18:20:08.873Z,45.77
2019-05-22T18:22:37.803Z,44.84
2019-05-22T18:25:06.946Z,44.21
2019-05-22T18:27:35.851Z,44.20
2019-05-22T18:30:04.893Z,43.26
2019-05-22T18:32:33.749Z,41.55
2019-05-22T18:35:02.664Z,42.08
2019-05-22T18:37:31.567Z,41.93
2019-05-22T18:40:00.457Z,42.00
2019-05-22T18:42:29.373Z,41.65
2019-05-22T18:44:58.269Z,41.10
2019-05-22T18:47:27.179Z,40.86
2019-05-22T18:49:56.045Z,40.85
2019-05-22T18:52:39.977Z,40.84
2019-05-22T18:54:53.846Z,40.86
2019-05-22T18:57:22.760Z,40.42
2019-05-22T18:59:51.692Z,40.17
2019-05-22T19:02:20.542Z,40.08
2019-05-22T19:04:49.459Z,39.85
2019-05-22T19:07:18.363Z,40.28
2019-05-22T19:09:47.280Z,41.81
2019-05-22T19:12:16.155Z,42.04
2019-05-22T19:14:45.048Z,42.65
2019-05-22T19:17:13.930Z,42.67
2019-05-22T19:19:42.834Z,42.95
2019-05-22T19:22:11.715Z,43.43
2019-05-22T19:24:40.612Z,43.41
2019-05-22T19:27:09.612Z,43.34
2019-05-22T19:29:38.397Z,44.08
2019-05-22T19:32:07.332Z,44.24
2019-05-22T19:34:36.234Z,44.01
2019-05-22T19:37:05.120Z,43.79
2019-05-22T19:39:34.019Z,45.16
2019-05-22T19:42:05.642Z,45.55
2019-05-22T19:44:31.846Z,46.50
2019-05-22T19:47:00.752Z,47.17
2019-05-22T19:49:29.640Z,47.15
2019-05-22T19:51:58.552Z,47.10
2019-05-22T19:54:27.442Z,46.97
2019-05-22T19:56:56.347Z,46.95
2019-05-22T19:59:25.263Z,47.44
2019-05-22T20:01:54.176Z,48.12
2019-05-22T20:04:23.055Z,48.86
2019-05-22T20:06:51.962Z,49.22
2019-05-22T20:09:20.844Z,50.13
2019-05-22T20:11:49.753Z,50.15
2019-05-22T20:14:18.957Z,49.89
2019-05-22T20:16:47.869Z,50.41
2019-05-22T20:19:16.765Z,50.77
2019-05-22T20:21:45.675Z,51.19
2019-05-22T20:24:14.543Z,51.57
2019-05-22T20:26:43.447Z,51.29
2019-05-22T20:29:12.783Z,51.71
2019-05-22T20:31:41.663Z,49.88
2019-05-22T20:34:10.568Z,50.20
2019-05-22T20:36:39.765Z,51.13
2019-05-22T20:39:09.896Z,51.44
2019-05-22T20:41:38.791Z,52.21
2019-05-22T20:44:08.647Z,52.76
2019-05-22T20:46:38.054Z,53.37
2019-05-22T20:49:06.832Z,54.44
2019-05-22T20:51:35.773Z,55.14
2019-05-22T20:54:04.665Z,55.23
2019-05-22T20:56:33.838Z,55.08
2019-05-22T20:59:02.785Z,55.40
2019-05-22T21:01:31.668Z,55.38
2019-05-22T21:04:00.561Z,55.63
2019-05-22T21:06:29.464Z,55.65
2019-05-22T21:08:58.365Z,56.09
2019-05-22T21:11:27.271Z,55.84
2019-05-22T21:13:56.148Z,56.04
2019-05-22T21:16:25.348Z,56.10
2019-05-22T21:18:54.556Z,56.43
2019-05-22T21:21:23.441Z,57.32
2019-05-22T21:23:52.319Z,57.95
2019-05-22T21:26:21.207Z,57.79
2019-05-22T21:28:50.127Z,57.34
2019-05-22T21:31:19.041Z,57.50
2019-05-22T21:33:47.941Z,58.20
2019-05-22T21:36:16.975Z,58.86
2019-05-22T21:38:45.890Z,58.89
2019-05-22T21:41:14.800Z,59.41
2019-05-22T21:43:43.680Z,59.74
2019-05-22T21:46:12.584Z,61.02
2019-05-22T21:48:41.541Z,61.04
2019-05-22T21:51:10.423Z,61.54
2019-05-22T21:53:39.325Z,61.73
2019-05-22T21:56:08.366Z,61.86
2019-05-22T21:58:37.441Z,61.80
2019-05-22T22:01:23.324Z,61.73
2019-05-22T22:03:54.970Z,61.84
2019-05-22T22:06:23.855Z,61.91
2019-05-22T22:08:52.738Z,61.72
2019-05-22T22:11:22.793Z,61.16
2019-05-22T22:13:51.710Z,61.81
2019-05-22T22:16:20.580Z,61.79
2019-05-22T22:18:49.483Z,62.41
2019-05-22T22:21:18.406Z,62.31
2019-05-22T22:23:47.430Z,62.53
2019-05-22T22:26:25.253Z,62.55
2019-05-22T22:28:45.243Z,62.80
2019-05-22T22:31:14.345Z,62.98
2019-05-22T22:33:43.915Z,63.10
2019-05-22T22:36:12.817Z,62.95
2019-05-22T22:38:41.737Z,62.58
2019-05-22T22:41:10.617Z,62.40
2019-05-22T22:43:39.976Z,62.50
2019-05-22T22:46:17.270Z,63.16
2019-05-22T22:48:47.624Z,63.77
2019-05-22T22:51:16.529Z,63.53
2019-05-22T22:53:45.433Z,63.77
2019-05-22T22:56:14.303Z,63.37
2019-05-22T22:58:43.216Z,63.81
2019-05-22T23:01:12.684Z,63.85
2019-05-22T23:03:41.586Z,63.90
2019-05-22T23:06:10.480Z,63.48
2019-05-22T23:08:39.948Z,63.62
2019-05-22T23:11:09.145Z,63.63
2019-05-22T23:13:38.045Z,62.94
2019-05-22T23:16:06.944Z,63.67
2019-05-22T23:19:30.516Z,64.06
2019-05-22T23:22:00.501Z,64.08
2019-05-22T23:24:29.456Z,64.10
2019-05-22T23:26:58.515Z,64.68
2019-05-22T23:29:27.585Z,65.22
2019-05-22T23:31:56.528Z,65.54
2019-05-22T23:34:25.441Z,65.26
2019-05-22T23:36:54.350Z,65.83
2019-05-22T23:39:23.241Z,65.41
2019-05-22T23:41:55.702Z,65.30
2019-05-22T23:44:22.157Z,65.46
2019-05-22T23:46:51.078Z,65.95
2019-05-22T23:49:19.970Z,66.23
2019-05-22T23:51:49.157Z,66.56
2019-05-22T23:54:18.055Z,66.87
2019-05-22T23:56:46.980Z,67.21
2019-05-22T23:59:15.913Z,67.39
